YVD weather

Virden/R.J. (Bob) Andrew Field Regional Aerodrome
Virden, Manitoba, Canada

Public forecast

Using degrees Celsius for public forecast. Weather courtesy of forecast.io.

Closest aviation weather report (METAR) to Virden/R.J. (Bob) Andrew Field Regional Aerodrome

Closest report is Brandon Municipal Airport, 37.4 nm (69.3 km) E. Retrieved 2019/12/06 05:00 UTC (25 minutes ago):

CYBR 060500Z 26007KT 15SM SKC M18/M20 A3027 RMK SLP290

Closest aviation forecast (TAF) to Virden/R.J. (Bob) Andrew Field Regional Aerodrome

Closest forecast is Brandon Municipal Airport, 37.4 nm (69.3 km) E. Retrieved 2019-12-06 00:42 UTC (5 hours ago):

TAF CYBR 052338Z 0600/0612 30010KT P6SM FEW020 FM060800 25008KT P6SM FEW020 BKN040 TEMPO 0608/0612 OVC020 RMK NXT FCST BY 060600Z